Date,TemperatureHighF,TemperatureAvgF,TemperatureLowF,DewpointHighF,DewpointAvgF,DewpointLowF,HumidityHigh,HumidityAvg,HumidityLow,PressureMaxIn,PressureMinIn,WindSpeedMaxMPH,WindSpeedAvgMPH,GustSpeedMaxMPH,PrecipitationSumIn
2013-2-1,23.1,19.1,15.4,16.4,13.2,10.3,91,78,62,30.19,29.63,17,10,17,0.00
2013-2-2,19.4,15.6,11.5,12.1,9.9,7.6,90,78,63,30.21,30.03,12,4,12,0.00
2013-2-3,25.8,17.6,5.6,18.3,12.5,3.1,91,81,59,30.03,29.79,12,2,12,0.02
2013-2-4,20.5,16.7,10.1,17.2,13.3,7.7,92,86,74,29.96,29.82,17,5,17,0.00
2013-2-5,23.9,16.5,4.8,18.6,10.4,1.7,92,77,61,30.03,29.89,8,2,8,0.05
2013-2-6,27.5,22.0,12.8,23.9,14.7,4.4,92,74,43,30.39,29.90,22,7,22,0.00
2013-2-7,25.2,17.0,6.3,12.8,7.4,2.1,84,66,52,30.52,30.29,18,5,18,0.00
2013-2-8,27.8,23.5,19.7,23.9,18.9,10.4,94,83,66,30.29,29.84,23,10,23,0.00
2013-2-9,23.7,16.0,7.8,22.1,11.4,5.2,94,82,60,30.43,29.91,14,5,14,0.00
2013-2-10,31.7,20.2,12.2,16.1,12.0,9.4,92,72,42,30.50,30.15,15,4,15,0.04
2013-2-11,46.2,35.7,22.5,38.7,29.0,9.4,94,77,49,30.15,29.61,17,8,17,0.13
2013-2-12,34.4,32.3,29.6,29.7,27.4,24.5,93,82,72,29.94,29.69,26,10,26,0.01
2013-2-13,35.9,30.1,23.9,25.5,22.4,18.4,84,73,56,29.90,29.73,13,2,13,0.01
2013-2-14,37.9,29.7,18.4,32.0,23.6,15.4,92,79,61,29.96,29.76,12,2,12,0.00
2013-2-15,40.2,35.5,27.7,32.3,27.8,22.5,89,74,53,30.01,29.83,18,6,18,0.02
2013-2-16,28.0,24.1,18.1,23.7,14.4,7.1,89,68,45,30.02,29.89,12,4,12,0.00
2013-2-17,18.9,13.8,10.0,8.8,5.8,1.6,88,71,57,30.06,29.83,24,8,24,0.00
2013-2-18,25.6,14.4,5.0,11.3,6.7,0.8,87,72,53,30.30,30.06,17,6,17,0.00
2013-2-19,40.4,29.3,20.7,33.3,22.2,10.5,95,76,51,30.10,29.64,18,9,18,0.10
2013-2-20,27.4,23.2,19.3,24.3,16.0,10.2,88,74,52,29.94,29.72,26,12,26,0.00
2013-2-21,19.3,15.5,11.8,16.2,12.0,7.5,93,86,79,30.45,29.92,20,8,20,0.00
2013-2-22,33.4,25.5,15.7,26.3,20.2,13.8,93,81,68,30.46,30.17,15,5,15,0.01
2013-2-23,36.6,34.1,32.1,35.7,30.4,23.9,97,87,68,30.17,29.85,14,5,14,0.06
2013-2-24,34.2,30.5,28.6,33.7,27.7,24.9,98,89,74,30.01,29.83,12,4,12,0.11
2013-2-25,37.3,31.0,23.8,31.8,28.2,21.6,96,89,75,30.26,30.01,12,4,12,0.03
2013-2-26,40.9,31.7,19.4,32.4,25.5,17.4,94,79,64,30.28,29.94,29,7,29,0.01
2013-2-27,37.2,34.1,30.7,35.4,32.3,28.8,96,93,80,29.96,29.55,30,7,30,1.27
2013-2-28,35.7,34.0,32.0,34.2,32.8,31.2,97,95,91,29.65,29.55,7,1,7,0.36